createdAt,value
2022-12-17T00:01:08.129Z,-0.34
2022-12-17T00:03:53.938Z,-0.40
2022-12-17T00:06:42.275Z,-0.44
2022-12-17T00:09:27.464Z,-0.44
2022-12-17T00:12:12.597Z,-0.39
2022-12-17T00:14:57.952Z,-0.38
2022-12-17T00:17:43.181Z,-0.36
2022-12-17T00:20:29.551Z,-0.29
2022-12-17T00:23:23.817Z,-0.26
2022-12-17T00:26:14.974Z,-0.23
2022-12-17T00:29:00.666Z,-0.15
2022-12-17T00:31:49.127Z,-0.20
2022-12-17T00:34:34.501Z,-0.22
2022-12-17T00:37:19.675Z,-0.20
2022-12-17T00:40:04.845Z,-0.18
2022-12-17T00:42:50.026Z,-0.22
2022-12-17T00:45:37.125Z,-0.23
2022-12-17T00:48:22.692Z,-0.28
2022-12-17T00:51:08.363Z,-0.23
2022-12-17T00:53:53.658Z,-0.23
2022-12-17T00:56:40.211Z,-0.23
2022-12-17T00:59:25.320Z,-0.24
2022-12-17T01:02:11.224Z,-0.27
2022-12-17T01:04:56.861Z,-0.24
2022-12-17T01:07:42.563Z,-0.23
2022-12-17T01:10:27.978Z,-0.25
2022-12-17T01:13:13.156Z,-0.24
2022-12-17T01:15:58.392Z,-0.24
2022-12-17T01:18:43.511Z,-0.21
2022-12-17T01:21:28.743Z,-0.22
2022-12-17T01:24:13.632Z,-0.13
2022-12-17T01:26:58.761Z,-0.17
2022-12-17T01:29:43.996Z,-0.23
2022-12-17T01:32:43.898Z,-0.21
2022-12-17T01:35:29.430Z,-0.20
2022-12-17T01:38:16.804Z,-0.18
2022-12-17T01:41:02.648Z,-0.17
2022-12-17T01:43:54.405Z,-0.20
2022-12-17T01:46:41.155Z,-0.21
2022-12-17T01:49:30.287Z,-0.19
2022-12-17T01:52:18.088Z,-0.17
2022-12-17T01:55:04.383Z,-0.11
2022-12-17T01:57:50.017Z,-0.12
2022-12-17T02:00:37.272Z,-0.13
2022-12-17T02:03:23.495Z,-0.10
2022-12-17T02:06:33.670Z,-0.16
2022-12-17T02:09:40.826Z,-0.16
2022-12-17T02:12:58.734Z,-0.15
2022-12-17T02:16:13.321Z,-0.20
2022-12-17T02:19:11.651Z,-0.14
2022-12-17T02:22:01.071Z,-0.13
2022-12-17T02:25:23.982Z,-0.16
2022-12-17T02:28:10.925Z,-0.21
2022-12-17T02:30:57.752Z,-0.26
2022-12-17T02:33:43.968Z,-0.32
2022-12-17T02:36:29.820Z,-0.35
2022-12-17T02:39:15.051Z,-0.33
2022-12-17T02:42:08.143Z,-0.40
2022-12-17T02:44:56.665Z,-0.42
2022-12-17T02:47:43.508Z,-0.49
2022-12-17T02:50:30.292Z,-0.50
2022-12-17T02:53:20.757Z,-0.52
2022-12-17T02:56:05.911Z,-0.54
2022-12-17T02:58:54.079Z,-0.54
2022-12-17T03:01:39.406Z,-0.56
2022-12-17T03:04:24.723Z,-0.66
2022-12-17T03:07:10.008Z,-0.67
2022-12-17T03:09:55.563Z,-0.64
2022-12-17T03:12:42.702Z,-0.64
2022-12-17T03:15:28.358Z,-0.64
2022-12-17T03:18:13.402Z,-0.61
2022-12-17T03:20:58.553Z,-0.61
2022-12-17T03:23:43.668Z,-0.65
2022-12-17T03:26:28.975Z,-0.62
2022-12-17T03:29:13.812Z,-0.62
2022-12-17T03:31:59.094Z,-0.65
2022-12-17T03:34:44.273Z,-0.67
2022-12-17T03:37:29.672Z,-0.70
2022-12-17T03:40:15.067Z,-0.76
2022-12-17T03:43:00.152Z,-0.78
2022-12-17T03:45:45.412Z,-0.74
2022-12-17T03:48:32.712Z,-0.73
2022-12-17T03:51:19.651Z,-0.73
2022-12-17T03:54:05.861Z,-0.69
2022-12-17T03:56:51.550Z,-0.67
2022-12-17T03:59:36.726Z,-0.67
2022-12-17T04:02:22.416Z,-0.63
2022-12-17T04:05:08.000Z,-0.63
2022-12-17T04:07:53.046Z,-0.65
2022-12-17T04:10:38.123Z,-0.64
2022-12-17T04:13:23.804Z,-0.62
2022-12-17T04:16:09.098Z,-0.59
2022-12-17T04:18:54.228Z,-0.52
2022-12-17T04:21:39.592Z,-0.49
2022-12-17T04:24:25.244Z,-0.62
2022-12-17T04:27:10.461Z,-0.59
2022-12-17T04:29:55.659Z,-0.52
2022-12-17T04:32:40.819Z,-0.61
2022-12-17T04:35:46.647Z,-0.61
2022-12-17T04:38:32.079Z,-0.57
2022-12-17T04:41:17.098Z,-0.56
2022-12-17T04:44:03.387Z,-0.59
2022-12-17T04:46:49.292Z,-0.58
2022-12-17T04:49:34.565Z,-0.53
2022-12-17T04:52:20.172Z,-0.51
2022-12-17T04:55:05.360Z,-0.54
2022-12-17T04:57:50.668Z,-0.58
2022-12-17T05:00:36.100Z,-0.61
2022-12-17T05:03:39.861Z,-0.66
2022-12-17T05:06:26.224Z,-0.80
2022-12-17T05:09:11.880Z,-0.87
2022-12-17T05:11:57.054Z,-0.89
2022-12-17T05:14:42.107Z,-0.96
2022-12-17T05:17:27.268Z,-1.01
2022-12-17T05:20:12.518Z,-1.06
2022-12-17T05:22:57.663Z,-1.06
2022-12-17T05:25:42.905Z,-1.04
2022-12-17T05:28:28.106Z,-1.07
2022-12-17T05:31:14.924Z,-1.09
2022-12-17T05:34:00.782Z,-1.12
2022-12-17T05:36:45.832Z,-1.06
2022-12-17T05:39:31.095Z,-0.97
2022-12-17T05:42:16.114Z,-0.98
2022-12-17T05:45:01.315Z,-1.06
2022-12-17T05:47:46.371Z,-1.08
2022-12-17T05:50:31.634Z,-1.12
2022-12-17T05:53:25.143Z,-1.17
2022-12-17T05:56:12.432Z,-1.14
2022-12-17T05:58:58.565Z,-1.10
2022-12-17T06:01:43.811Z,-1.11
2022-12-17T06:04:29.222Z,-1.18
2022-12-17T06:07:14.302Z,-1.16
2022-12-17T06:09:59.397Z,-1.20
2022-12-17T06:12:44.678Z,-1.21
2022-12-17T06:15:29.969Z,-1.19
2022-12-17T06:18:17.083Z,-1.25
2022-12-17T06:21:04.141Z,-1.30
2022-12-17T06:23:49.422Z,-1.30
2022-12-17T06:26:34.557Z,-1.33
2022-12-17T06:29:19.746Z,-1.38
2022-12-17T06:32:05.002Z,-1.35
2022-12-17T06:34:50.116Z,-1.31
2022-12-17T06:37:35.327Z,-1.36
2022-12-17T06:40:20.428Z,-1.35
2022-12-17T06:43:15.823Z,-1.25
2022-12-17T06:46:00.984Z,-1.28
2022-12-17T06:48:46.134Z,-1.26
2022-12-17T06:51:31.346Z,-1.25
2022-12-17T06:54:16.542Z,-1.28
2022-12-17T06:57:01.338Z,-1.27
2022-12-17T06:59:46.524Z,-1.31
2022-12-17T07:02:31.795Z,-1.32
2022-12-17T07:05:17.042Z,-1.31
2022-12-17T07:08:02.211Z,-1.26
2022-12-17T07:10:47.419Z,-1.29
2022-12-17T07:13:32.812Z,-1.29
2022-12-17T07:16:18.138Z,-1.24
2022-12-17T07:19:03.481Z,-1.31
2022-12-17T07:21:48.712Z,-1.38
2022-12-17T07:24:33.887Z,-1.31
2022-12-17T07:27:19.404Z,-1.30
2022-12-17T07:30:04.929Z,-1.27
2022-12-17T07:32:50.115Z,-1.31
2022-12-17T07:35:35.167Z,-1.33
2022-12-17T07:38:22.918Z,-1.39
2022-12-17T07:41:08.237Z,-1.34
2022-12-17T07:43:53.688Z,-1.42
2022-12-17T07:46:39.627Z,-1.46
2022-12-17T07:49:26.219Z,-1.47
2022-12-17T07:52:12.334Z,-1.48
2022-12-17T07:54:58.069Z,-1.42
2022-12-17T07:57:44.732Z,-1.30
2022-12-17T08:00:31.097Z,-1.26
2022-12-17T08:03:18.445Z,-1.28
2022-12-17T08:06:05.231Z,-1.28
2022-12-17T08:08:53.552Z,-1.31
2022-12-17T08:11:39.752Z,-1.31
2022-12-17T08:14:25.197Z,-1.29
2022-12-17T08:17:10.785Z,-1.28
2022-12-17T08:19:56.234Z,-1.25
2022-12-17T08:22:41.466Z,-1.24
2022-12-17T08:25:27.624Z,-1.24
2022-12-17T08:28:49.585Z,-1.19
2022-12-17T08:31:25.383Z,-1.28
2022-12-17T08:34:10.913Z,-1.33
2022-12-17T08:36:56.004Z,-1.44
2022-12-17T08:39:41.188Z,-1.47
2022-12-17T08:42:26.341Z,-1.42
2022-12-17T08:45:11.604Z,-1.31
2022-12-17T08:48:02.044Z,-1.31
2022-12-17T08:50:49.137Z,-1.23
2022-12-17T08:53:51.059Z,-1.26
2022-12-17T08:56:36.209Z,-1.30
2022-12-17T08:59:21.364Z,-1.33
2022-12-17T09:02:07.047Z,-1.35
2022-12-17T09:04:52.647Z,-1.38
2022-12-17T09:07:37.886Z,-1.48
2022-12-17T09:10:24.207Z,-1.48
2022-12-17T09:13:09.408Z,-1.43
2022-12-17T09:15:54.564Z,-1.38
2022-12-17T09:18:40.712Z,-1.34
2022-12-17T09:21:27.481Z,-1.38
2022-12-17T09:24:29.515Z,-1.41
2022-12-17T09:27:14.442Z,-1.36
2022-12-17T09:29:59.922Z,-1.34
2022-12-17T09:32:50.120Z,-1.31
2022-12-17T09:35:35.488Z,-1.32
2022-12-17T09:38:20.705Z,-1.34
2022-12-17T09:41:09.577Z,-1.38
2022-12-17T09:44:34.327Z,-1.36
2022-12-17T09:47:57.365Z,-1.41
2022-12-17T09:50:43.557Z,-1.39
2022-12-17T09:53:49.996Z,-1.34
2022-12-17T09:56:41.765Z,-1.36
2022-12-17T09:59:43.294Z,-1.33
2022-12-17T10:02:44.261Z,-1.32
2022-12-17T10:05:47.597Z,-1.41
2022-12-17T10:08:39.731Z,-1.48
2022-12-17T10:11:54.231Z,-1.39
2022-12-17T10:14:43.897Z,-1.40
2022-12-17T10:17:41.600Z,-1.48
2022-12-17T10:20:45.605Z,-1.42
2022-12-17T10:23:51.284Z,-1.38
2022-12-17T10:26:42.608Z,-1.40
2022-12-17T10:29:47.038Z,-1.38
2022-12-17T10:32:52.625Z,-1.38
2022-12-17T10:35:53.485Z,-1.35
2022-12-17T10:38:43.266Z,-1.41
2022-12-17T10:41:43.315Z,-1.27
2022-12-17T10:44:53.557Z,-1.26
2022-12-17T10:47:45.963Z,-1.24
2022-12-17T10:50:41.380Z,-1.25
2022-12-17T10:53:43.646Z,-1.24
2022-12-17T10:56:45.569Z,-1.26
2022-12-17T10:59:50.404Z,-1.35
2022-12-17T11:02:44.614Z,-1.37
2022-12-17T11:05:59.444Z,-1.46
2022-12-17T11:08:48.352Z,-1.40
2022-12-17T11:11:34.984Z,-1.39
2022-12-17T11:14:24.330Z,-1.41
2022-12-17T11:17:18.783Z,-1.43
2022-12-17T11:20:26.524Z,-1.39
2022-12-17T11:23:18.948Z,-1.37
2022-12-17T11:26:21.307Z,-1.28
2022-12-17T11:29:06.851Z,-1.27
2022-12-17T11:32:26.436Z,-1.25
2022-12-17T11:35:24.211Z,-1.25
2022-12-17T11:38:23.685Z,-1.19
2022-12-17T11:41:36.605Z,-1.09
2022-12-17T11:44:35.441Z,-1.08
2022-12-17T11:47:40.363Z,-1.04
2022-12-17T11:50:50.237Z,-1.00
2022-12-17T11:54:21.434Z,-1.07
2022-12-17T11:57:20.302Z,-1.20
2022-12-17T12:00:31.827Z,-1.31
2022-12-17T12:03:49.663Z,-1.33
2022-12-17T12:07:03.376Z,-1.30
2022-12-17T12:09:59.704Z,-1.23
2022-12-17T12:13:16.339Z,-1.22
2022-12-17T12:16:23.315Z,-1.18
2022-12-17T12:19:59.578Z,-1.18
2022-12-17T12:23:17.196Z,-1.18
2022-12-17T12:26:20.196Z,-1.14
2022-12-17T12:29:47.294Z,-1.09
2022-12-17T12:32:43.120Z,-1.09
2022-12-17T12:35:40.006Z,-0.99
2022-12-17T12:38:45.798Z,-0.98
2022-12-17T12:41:58.767Z,-1.06
2022-12-17T12:45:09.136Z,-1.11
2022-12-17T12:48:09.589Z,-1.10
2022-12-17T12:51:32.232Z,-1.13
2022-12-17T12:54:39.988Z,-1.08
2022-12-17T12:57:45.040Z,-1.01
2022-12-17T13:00:54.199Z,-1.02
2022-12-17T13:04:12.182Z,-1.18
2022-12-17T13:06:48.884Z,-1.25
2022-12-17T13:09:15.754Z,-1.34
2022-12-17T13:11:45.294Z,-1.45
2022-12-17T13:14:19.730Z,-1.45
2022-12-17T13:17:01.639Z,-1.46
2022-12-17T13:19:33.921Z,-1.44
2022-12-17T13:22:20.248Z,-1.33
2022-12-17T13:24:55.142Z,-1.32
2022-12-17T13:27:32.451Z,-1.25
2022-12-17T13:30:36.118Z,-1.26
2022-12-17T13:33:28.397Z,-1.37
2022-12-17T13:36:21.776Z,-1.43
2022-12-17T13:39:08.228Z,-1.41
2022-12-17T13:41:38.592Z,-1.36
2022-12-17T13:44:22.670Z,-1.34
2022-12-17T13:46:52.205Z,-1.37
2022-12-17T13:49:26.347Z,-1.43
2022-12-17T13:52:18.160Z,-1.44
2022-12-17T13:54:45.633Z,-1.44
2022-12-17T13:57:26.147Z,-1.45
2022-12-17T14:00:02.521Z,-1.52
2022-12-17T14:02:39.590Z,-1.55
2022-12-17T14:05:21.028Z,-1.52
2022-12-17T14:07:47.883Z,-1.50
2022-12-17T14:10:18.129Z,-1.46
2022-12-17T14:12:46.195Z,-1.48
2022-12-17T14:15:27.227Z,-1.49
2022-12-17T14:17:56.442Z,-1.50
2022-12-17T14:20:29.325Z,-1.51
2022-12-17T14:23:15.894Z,-1.54
2022-12-17T14:25:44.584Z,-1.50
2022-12-17T14:28:30.324Z,-1.55
2022-12-17T14:31:28.985Z,-1.66
2022-12-17T14:34:07.953Z,-1.73
2022-12-17T14:36:42.559Z,-1.77
2022-12-17T14:39:24.034Z,-1.80
2022-12-17T14:42:10.442Z,-1.80
2022-12-17T14:44:51.234Z,-1.77
2022-12-17T14:47:24.784Z,-1.78
2022-12-17T14:50:12.704Z,-1.81
2022-12-17T14:52:57.528Z,-1.89
2022-12-17T14:55:58.772Z,-1.99
2022-12-17T14:58:27.664Z,-2.04
2022-12-17T15:01:12.637Z,-2.11
2022-12-17T15:03:48.274Z,-2.18
2022-12-17T15:06:20.331Z,-2.17
2022-12-17T15:08:50.243Z,-2.11
2022-12-17T15:11:21.359Z,-2.02
2022-12-17T15:13:54.442Z,-2.02
2022-12-17T15:16:23.562Z,-2.10
2022-12-17T15:18:50.420Z,-2.19
2022-12-17T15:21:19.558Z,-2.18
2022-12-17T15:23:48.325Z,-2.21
2022-12-17T15:26:15.514Z,-2.25
2022-12-17T15:28:42.938Z,-2.33
2022-12-17T15:31:14.303Z,-2.39
2022-12-17T15:33:42.250Z,-2.46
2022-12-17T15:36:13.509Z,-2.44
2022-12-17T15:38:40.707Z,-2.42
2022-12-17T15:41:26.459Z,-2.49
2022-12-17T15:43:53.308Z,-2.53
2022-12-17T15:46:20.113Z,-2.54
2022-12-17T15:48:54.040Z,-2.54
2022-12-17T15:51:21.189Z,-2.60
2022-12-17T15:53:48.339Z,-2.67
2022-12-17T15:56:21.753Z,-2.76
2022-12-17T15:58:48.857Z,-2.77
2022-12-17T16:01:16.363Z,-2.78
2022-12-17T16:03:43.954Z,-2.84
2022-12-17T16:06:11.629Z,-2.95
2022-12-17T16:08:40.257Z,-2.94
2022-12-17T16:11:13.333Z,-2.84
2022-12-17T16:13:40.571Z,-2.83
2022-12-17T16:16:08.884Z,-2.81
2022-12-17T16:18:38.516Z,-2.83
2022-12-17T16:21:08.701Z,-2.82
2022-12-17T16:23:36.411Z,-2.80
2022-12-17T16:26:06.531Z,-2.83
2022-12-17T16:28:35.581Z,-2.87
2022-12-17T16:31:10.565Z,-2.87
2022-12-17T16:33:43.002Z,-2.91
2022-12-17T16:36:15.472Z,-2.91
2022-12-17T16:38:52.117Z,-2.93
2022-12-17T16:41:21.090Z,-2.91
2022-12-17T16:43:48.820Z,-2.94
2022-12-17T16:46:34.330Z,-2.88
2022-12-17T16:49:18.079Z,-2.88
2022-12-17T16:51:48.415Z,-2.87
2022-12-17T16:54:19.995Z,-2.83
2022-12-17T16:56:47.748Z,-2.88
2022-12-17T16:59:16.741Z,-2.94
2022-12-17T17:01:47.130Z,-2.93
2022-12-17T17:04:17.236Z,-2.90
2022-12-17T17:06:51.107Z,-2.86
2022-12-17T17:09:18.676Z,-2.83
2022-12-17T17:11:51.492Z,-2.87
2022-12-17T17:14:19.383Z,-2.89
2022-12-17T17:16:46.165Z,-2.88
2022-12-17T17:19:13.069Z,-2.93
2022-12-17T17:21:47.561Z,-2.95
2022-12-17T17:24:21.183Z,-2.91
2022-12-17T17:26:51.289Z,-2.95
2022-12-17T17:29:18.661Z,-3.02
2022-12-17T17:32:09.167Z,-3.06
2022-12-17T17:34:32.523Z,-3.17
2022-12-17T17:36:59.287Z,-3.24
2022-12-17T17:39:27.266Z,-3.20
2022-12-17T17:41:54.068Z,-3.19
2022-12-17T17:44:20.762Z,-3.24
2022-12-17T17:46:47.549Z,-3.29
2022-12-17T17:49:14.384Z,-3.24
2022-12-17T17:54:30.887Z,-3.12
2022-12-17T17:56:57.668Z,-3.18
2022-12-17T17:59:31.214Z,-3.21
2022-12-17T18:02:01.518Z,-3.29
2022-12-17T18:04:28.800Z,-3.32
2022-12-17T18:07:24.239Z,-3.39
2022-12-17T18:09:42.327Z,-3.42
2022-12-17T18:12:27.849Z,-3.48
2022-12-17T18:17:41.944Z,-3.43
2022-12-17T18:20:10.037Z,-3.44
2022-12-17T18:22:37.344Z,-3.49
2022-12-17T18:25:05.220Z,-3.48
2022-12-17T18:27:32.170Z,-3.49
2022-12-17T18:29:58.998Z,-3.44
2022-12-17T18:32:25.763Z,-3.41
2022-12-17T18:34:52.541Z,-3.39
2022-12-17T18:37:19.335Z,-3.31
2022-12-17T18:39:46.088Z,-3.33
2022-12-17T18:42:31.615Z,-3.35
2022-12-17T18:44:58.531Z,-3.38
2022-12-17T18:47:25.546Z,-3.42
2022-12-17T18:49:52.460Z,-3.49
2022-12-17T18:52:19.452Z,-3.51
2022-12-17T18:54:46.643Z,-3.58
2022-12-17T18:57:13.660Z,-3.61
2022-12-17T18:59:41.007Z,-3.70
2022-12-17T19:02:15.306Z,-3.77
2022-12-17T19:04:42.643Z,-3.82
2022-12-17T19:07:09.856Z,-3.94
2022-12-17T19:09:39.496Z,-3.98
2022-12-17T19:12:09.479Z,-3.93
2022-12-17T19:14:37.028Z,-3.92
2022-12-17T19:17:05.915Z,-3.92
2022-12-17T19:19:33.503Z,-3.99
2022-12-17T19:22:00.845Z,-3.99
2022-12-17T19:24:27.953Z,-4.08
2022-12-17T19:26:55.566Z,-4.18
2022-12-17T19:29:22.968Z,-4.29
2022-12-17T19:31:50.400Z,-4.41
2022-12-17T19:34:19.319Z,-4.49
2022-12-17T19:36:47.488Z,-4.57
2022-12-17T19:39:18.255Z,-4.57
2022-12-17T19:41:45.605Z,-4.59
2022-12-17T19:44:16.392Z,-4.50
2022-12-17T19:46:44.186Z,-4.42
2022-12-17T19:49:13.997Z,-4.40
2022-12-17T19:51:44.119Z,-4.43
2022-12-17T19:54:14.791Z,-4.55
2022-12-17T19:56:44.407Z,-4.64
2022-12-17T19:59:14.056Z,-4.68
2022-12-17T20:01:44.940Z,-4.73
2022-12-17T20:04:14.188Z,-4.77
2022-12-17T20:06:42.870Z,-4.67
2022-12-17T20:09:10.374Z,-4.61
2022-12-17T20:11:37.536Z,-4.60
2022-12-17T20:14:17.765Z,-4.62
2022-12-17T20:16:51.998Z,-4.62
2022-12-17T20:19:26.028Z,-4.67
2022-12-17T20:21:54.833Z,-4.67
2022-12-17T20:24:27.148Z,-4.66
2022-12-17T20:26:58.539Z,-4.71
2022-12-17T20:29:25.672Z,-4.72
2022-12-17T20:31:54.393Z,-4.60
2022-12-17T20:34:23.775Z,-4.58
2022-12-17T20:36:51.990Z,-4.54
2022-12-17T20:39:25.983Z,-4.46
2022-12-17T20:41:53.627Z,-4.41
2022-12-17T20:44:20.399Z,-4.37
2022-12-17T20:46:47.084Z,-4.28
2022-12-17T20:49:14.770Z,-4.31
2022-12-17T20:51:42.064Z,-4.35
2022-12-17T20:54:11.094Z,-4.42
2022-12-17T20:56:39.249Z,-4.52
2022-12-17T20:59:12.651Z,-4.54
2022-12-17T21:01:39.510Z,-4.58
2022-12-17T21:04:07.444Z,-4.56
2022-12-17T21:06:46.565Z,-4.57
2022-12-17T21:09:15.766Z,-4.61
2022-12-17T21:11:42.747Z,-4.59
2022-12-17T21:14:15.588Z,-4.58
2022-12-17T21:16:43.743Z,-4.51
2022-12-17T21:19:15.614Z,-4.41
2022-12-17T21:21:42.615Z,-4.41
2022-12-17T21:24:10.145Z,-4.50
2022-12-17T21:26:41.646Z,-4.58
2022-12-17T21:29:09.310Z,-4.60
2022-12-17T21:31:45.316Z,-4.60
2022-12-17T21:34:21.631Z,-4.58
2022-12-17T21:36:50.240Z,-4.59
2022-12-17T21:39:18.933Z,-4.58
2022-12-17T21:42:07.601Z,-4.60
2022-12-17T21:44:36.028Z,-4.61
2022-12-17T21:47:03.593Z,-4.64
2022-12-17T21:49:30.470Z,-4.67
2022-12-17T21:51:59.297Z,-4.64
2022-12-17T21:54:26.325Z,-4.66
2022-12-17T21:56:53.219Z,-4.68
2022-12-17T21:59:20.018Z,-4.69
2022-12-17T22:01:47.454Z,-4.73
2022-12-17T22:04:14.610Z,-4.77
2022-12-17T22:06:44.840Z,-4.85
2022-12-17T22:09:31.187Z,-4.87
2022-12-17T22:12:26.870Z,-4.92
2022-12-17T22:14:53.611Z,-4.95
2022-12-17T22:17:20.763Z,-5.01
2022-12-17T22:19:47.720Z,-5.11
2022-12-17T22:22:14.457Z,-5.13
2022-12-17T22:24:41.263Z,-5.12
2022-12-17T22:27:09.646Z,-5.12
2022-12-17T22:29:55.203Z,-5.09
2022-12-17T22:32:40.522Z,-5.07
2022-12-17T22:37:56.151Z,-5.09
2022-12-17T22:41:06.623Z,-5.12
2022-12-17T22:44:30.504Z,-5.18
2022-12-17T22:44:36.512Z,-5.23
2022-12-17T22:46:16.880Z,-5.29
2022-12-17T22:48:44.016Z,-5.30
2022-12-17T22:51:13.641Z,-5.33
2022-12-17T22:53:48.163Z,-5.34
2022-12-17T22:56:48.996Z,-5.36
2022-12-17T22:59:03.937Z,-5.42
2022-12-17T23:01:31.829Z,-5.46
2022-12-17T23:04:01.650Z,-5.50
2022-12-17T23:06:29.535Z,-5.52
2022-12-17T23:08:57.662Z,-5.55
2022-12-17T23:11:28.475Z,-5.57
2022-12-17T23:13:56.129Z,-5.59
2022-12-17T23:16:24.014Z,-5.60
2022-12-17T23:18:52.148Z,-5.62
2022-12-17T23:21:24.135Z,-5.64
2022-12-17T23:23:56.108Z,-5.66
2022-12-17T23:26:27.651Z,-5.72
2022-12-17T23:29:01.787Z,-5.77
2022-12-17T23:31:35.091Z,-5.82
2022-12-17T23:34:02.089Z,-5.83
2022-12-17T23:36:30.300Z,-5.87
2022-12-17T23:38:58.365Z,-5.89
2022-12-17T23:41:29.145Z,-5.89
2022-12-17T23:43:57.483Z,-5.91
2022-12-17T23:46:27.331Z,-5.93
2022-12-17T23:48:55.796Z,-5.97
2022-12-17T23:51:24.289Z,-6.00
2022-12-17T23:53:52.377Z,-6.01
2022-12-17T23:56:27.112Z,-6.02
2022-12-17T23:59:00.423Z,-6.03
